Time;durP1;ratioP1;P1;durP2;ratioP2;P2;SDS_P1;SDS_P2;PMS_P1;PMS_P2;Temp;Humidity;BMP_temperature;BMP_pressure;BME280_temperature;BME280_humidity;BME280_pressure;Samples;Min_cycle;Max_cycle;Signal;HPM_P1;HPM_P2
2022/07/20 00:01:09;;;;;;;2.28;2.08;;;23.00;45.70;;;;;;608849;234;26813;-68
2022/07/20 00:03:36;;;;;;;2.45;2.33;;;23.00;45.90;;;;;;612949;234;26857;-68
2022/07/20 00:06:03;;;;;;;2.17;2.05;;;23.00;46.10;;;;;;601544;238;26663;-68
2022/07/20 00:13:36;;;;;;;2.15;2.05;;;22.90;46.30;;;;;;609770;234;26615;-68
2022/07/20 00:16:04;;;;;;;2.75;2.05;;;22.80;46.50;;;;;;613806;234;26648;-68
2022/07/20 00:18:31;;;;;;;2.05;1.95;;;22.80;46.50;;;;;;613807;234;26673;-68
2022/07/20 00:20:59;;;;;;;2.35;2.15;;;22.70;46.50;;;;;;613891;234;26637;-68
2022/07/20 00:23:27;;;;;;;2.20;2.00;;;22.70;46.60;;;;;;613377;230;26653;-68
2022/07/20 00:25:54;;;;;;;2.30;2.10;;;22.70;46.60;;;;;;612155;234;26708;-68
2022/07/20 00:28:22;;;;;;;1.90;1.80;;;22.70;46.60;;;;;;610126;235;26622;-68
2022/07/20 00:30:49;;;;;;;2.67;2.47;;;22.70;46.70;;;;;;612782;234;26887;-68
2022/07/20 00:33:16;;;;;;;1.90;1.80;;;22.70;47.10;;;;;;607141;232;26867;-68
2022/07/20 00:35:43;;;;;;;1.98;1.87;;;22.60;46.90;;;;;;613388;234;26814;-68
2022/07/20 00:38:10;;;;;;;2.42;2.33;;;22.50;46.90;;;;;;608678;234;26634;-68
2022/07/20 00:40:38;;;;;;;2.15;2.03;;;22.60;47.10;;;;;;602915;234;26890;-68
2022/07/20 00:43:05;;;;;;;2.37;2.17;;;22.50;47.00;;;;;;606798;235;26607;-68
2022/07/20 00:45:32;;;;;;;1.95;1.85;;;22.50;47.00;;;;;;611226;234;26816;-67
2022/07/20 00:47:59;;;;;;;2.40;2.20;;;22.50;47.20;;;;;;614403;234;26841;-68
2022/07/20 00:50:27;;;;;;;2.30;2.15;;;22.50;47.10;;;;;;610613;234;26636;-68
2022/07/20 00:52:54;;;;;;;2.12;2.03;;;22.40;47.10;;;;;;610037;236;26701;-68
2022/07/20 00:55:22;;;;;;;2.40;2.20;;;22.40;47.20;;;;;;606742;234;26655;-68
2022/07/20 00:57:49;;;;;;;2.10;2.00;;;22.40;47.20;;;;;;601849;234;26842;-68
2022/07/20 01:00:16;;;;;;;2.22;2.12;;;22.40;47.70;;;;;;609847;234;26587;-68
2022/07/20 01:02:43;;;;;;;2.20;2.10;;;22.40;47.40;;;;;;603190;234;26955;-68
2022/07/20 01:05:17;;;;;;;2.33;2.12;;;22.40;47.20;;;;;;611998;235;26580;-68
2022/07/20 01:07:45;;;;;;;2.30;2.10;;;22.40;47.30;;;;;;607832;235;26885;-68
2022/07/20 01:10:13;;;;;;;2.42;2.22;;;22.30;47.40;;;;;;602362;234;26851;-67
2022/07/20 01:12:39;;;;;;;2.33;2.22;;;22.30;47.50;;;;;;603788;234;26896;-68
2022/07/20 01:15:07;;;;;;;2.60;2.40;;;22.30;47.40;;;;;;612724;234;26811;-68
2022/07/20 01:17:35;;;;;;;2.05;1.95;;;22.30;47.40;;;;;;607733;234;26648;-68
2022/07/20 01:20:02;;;;;;;2.10;2.00;;;22.20;47.90;;;;;;612784;234;26637;-68
2022/07/20 01:22:29;;;;;;;2.60;2.40;;;22.20;47.50;;;;;;610462;234;26844;-68
2022/07/20 01:24:57;;;;;;;2.10;1.92;;;22.20;47.60;;;;;;601835;234;26643;-68
2022/07/20 01:27:24;;;;;;;2.45;2.20;;;22.20;47.60;;;;;;603103;234;26911;-68
2022/07/20 01:29:51;;;;;;;2.40;2.20;;;22.20;47.70;;;;;;613740;234;26632;-68
2022/07/20 01:32:19;;;;;;;2.20;2.08;;;22.10;47.60;;;;;;607615;234;27036;-68
2022/07/20 01:34:47;;;;;;;2.50;2.33;;;22.10;47.70;;;;;;605957;234;26641;-68
2022/07/20 01:37:14;;;;;;;2.35;2.25;;;22.10;47.50;;;;;;612738;234;26591;-68
2022/07/20 01:39:42;;;;;;;2.50;2.30;;;22.10;47.90;;;;;;611647;234;26647;-68
2022/07/20 01:42:10;;;;;;;2.58;2.33;;;22.10;47.80;;;;;;601500;236;26661;-68
2022/07/20 01:44:38;;;;;;;2.40;2.30;;;22.10;47.70;;;;;;608663;234;26639;-68
2022/07/20 01:47:05;;;;;;;2.65;2.45;;;22.10;47.70;;;;;;604370;234;26632;-68
2022/07/20 01:49:33;;;;;;;2.65;2.42;;;22.00;47.90;;;;;;604526;234;26887;-68
2022/07/20 01:52:01;;;;;;;2.72;2.53;;;22.00;48.30;;;;;;611220;234;26605;-68
2022/07/20 01:54:27;;;;;;;2.37;2.17;;;22.00;48.00;;;;;;611324;234;26865;-68
2022/07/20 01:56:54;;;;;;;2.40;2.30;;;21.90;48.00;;;;;;611002;234;26821;-68
2022/07/20 01:59:21;;;;;;;2.80;2.60;;;21.90;48.20;;;;;;612523;234;26826;-68
2022/07/20 02:01:49;;;;;;;2.58;2.37;;;21.90;48.30;;;;;;611597;234;26903;-68
2022/07/20 02:04:16;;;;;;;3.05;2.85;;;21.90;48.30;;;;;;608381;234;26894;-68
2022/07/20 02:06:44;;;;;;;2.87;2.67;;;21.80;48.30;;;;;;602232;234;26829;-68
2022/07/20 02:09:11;;;;;;;2.90;2.70;;;21.80;48.50;;;;;;607830;234;26642;-71
2022/07/20 02:11:38;;;;;;;2.90;2.70;;;21.70;48.70;;;;;;609371;234;26989;-68
2022/07/20 02:14:06;;;;;;;2.83;2.62;;;21.60;48.80;;;;;;611863;234;26573;-68
2022/07/20 02:16:34;;;;;;;2.72;2.53;;;21.60;48.80;;;;;;610770;234;26695;-68
2022/07/20 02:19:02;;;;;;;2.65;2.40;;;21.60;48.80;;;;;;605055;234;26626;-68
2022/07/20 02:21:30;;;;;;;2.67;2.47;;;21.60;48.70;;;;;;612019;230;26645;-68
2022/07/20 02:23:57;;;;;;;2.10;2.00;;;21.60;48.70;;;;;;605566;234;26628;-68
2022/07/20 02:26:24;;;;;;;3.12;2.90;;;21.60;48.80;;;;;;609678;231;26548;-68
2022/07/20 02:28:52;;;;;;;2.87;2.67;;;21.60;48.80;;;;;;612864;234;27322;-68
2022/07/20 02:31:19;;;;;;;2.97;2.78;;;21.60;48.90;;;;;;609840;230;26592;-68
2022/07/20 02:33:47;;;;;;;2.90;2.70;;;21.50;49.00;;;;;;602256;235;26659;-68
2022/07/20 02:36:14;;;;;;;2.72;2.55;;;21.50;49.40;;;;;;601542;234;26688;-68
2022/07/20 02:38:42;;;;;;;3.33;2.80;;;21.50;49.10;;;;;;601753;234;26663;-68
2022/07/20 02:41:10;;;;;;;2.62;2.42;;;21.50;49.00;;;;;;606709;234;26618;-68
2022/07/20 02:43:38;;;;;;;2.53;2.40;;;21.50;49.20;;;;;;613047;234;26588;-68
2022/07/20 02:46:06;;;;;;;2.70;2.50;;;21.50;49.20;;;;;;605924;234;26640;-68
2022/07/20 02:48:33;;;;;;;2.37;2.28;;;21.50;49.20;;;;;;606086;234;26807;-68
2022/07/20 02:51:00;;;;;;;2.62;2.42;;;21.50;49.20;;;;;;611454;234;26590;-68
2022/07/20 02:53:28;;;;;;;2.92;2.72;;;21.50;49.30;;;;;;612803;233;26592;-68
2022/07/20 02:55:56;;;;;;;2.70;2.50;;;21.40;49.30;;;;;;607717;232;26597;-68
2022/07/20 02:58:24;;;;;;;2.72;2.53;;;21.40;49.60;;;;;;610715;234;26583;-68
2022/07/20 03:00:52;;;;;;;3.10;2.90;;;21.30;49.60;;;;;;611257;234;26605;-68
2022/07/20 03:03:19;;;;;;;2.62;2.42;;;21.30;49.60;;;;;;610518;234;26607;-68
2022/07/20 03:05:46;;;;;;;2.97;2.78;;;21.30;49.80;;;;;;608647;234;26646;-68
2022/07/20 03:08:13;;;;;;;3.25;3.05;;;21.30;49.90;;;;;;602111;234;26882;-68
2022/07/20 03:10:40;;;;;;;2.45;2.25;;;21.30;50.00;;;;;;602355;234;26611;-68
2022/07/20 03:13:07;;;;;;;3.03;2.75;;;21.20;50.00;;;;;;601944;236;26831;-68
2022/07/20 03:15:35;;;;;;;2.90;2.70;;;21.20;50.00;;;;;;601987;234;26617;-68
2022/07/20 03:18:02;;;;;;;3.45;2.85;;;21.20;50.20;;;;;;608331;235;26842;-68
2022/07/20 03:20:29;;;;;;;3.25;2.95;;;21.10;50.10;;;;;;612799;234;26591;-68
2022/07/20 03:22:57;;;;;;;3.17;2.97;;;21.10;50.40;;;;;;609616;234;26638;-68
2022/07/20 03:25:24;;;;;;;2.92;2.72;;;21.10;50.30;;;;;;608901;234;26862;-68
2022/07/20 03:27:53;;;;;;;3.22;2.92;;;21.10;50.50;;;;;;610160;235;26590;-68
2022/07/20 03:30:19;;;;;;;3.03;2.83;;;21.00;50.50;;;;;;606499;234;26852;-68
2022/07/20 03:32:47;;;;;;;2.90;2.70;;;21.10;50.60;;;;;;608811;234;26661;-68
2022/07/20 03:35:14;;;;;;;3.40;3.10;;;21.00;50.60;;;;;;613753;234;26852;-68
2022/07/20 03:37:41;;;;;;;2.90;2.70;;;21.10;50.70;;;;;;605053;234;26651;-68
2022/07/20 03:40:08;;;;;;;3.30;3.10;;;21.10;50.60;;;;;;602504;234;26870;-68
2022/07/20 03:42:36;;;;;;;3.03;2.83;;;21.10;50.80;;;;;;601501;234;26686;-68
2022/07/20 03:45:04;;;;;;;3.30;3.10;;;21.00;50.70;;;;;;602374;234;26655;-68
2022/07/20 03:47:33;;;;;;;3.00;2.80;;;21.10;50.90;;;;;;603006;234;26622;-68
2022/07/20 03:50:00;;;;;;;3.62;3.33;;;21.00;50.90;;;;;;610312;234;26592;-68
2022/07/20 03:52:28;;;;;;;3.25;3.05;;;21.00;50.90;;;;;;613245;234;26674;-68
2022/07/20 03:54:55;;;;;;;3.30;3.00;;;21.00;50.90;;;;;;608214;234;26672;-68
2022/07/20 03:57:22;;;;;;;3.42;3.12;;;21.00;51.00;;;;;;603859;234;26637;-68
2022/07/20 03:59:49;;;;;;;3.05;2.85;;;21.00;51.00;;;;;;606712;234;26880;-68
2022/07/20 04:02:16;;;;;;;3.30;3.10;;;21.00;51.00;;;;;;613618;230;26665;-68
2022/07/20 04:04:44;;;;;;;3.47;3.17;;;21.00;51.00;;;;;;613531;234;26929;-68
2022/07/20 04:07:11;;;;;;;3.80;3.50;;;21.10;51.10;;;;;;612215;232;26665;-68
2022/07/20 04:09:44;;;;;;;3.33;3.12;;;21.10;51.00;;;;;;609496;234;26850;-68
2022/07/20 04:12:12;;;;;;;3.42;3.22;;;21.20;51.10;;;;;;613422;234;26879;-68
2022/07/20 04:14:39;;;;;;;3.67;3.37;;;21.20;51.10;;;;;;612307;234;26575;-68
2022/07/20 04:17:06;;;;;;;3.55;3.25;;;21.30;50.80;;;;;;614393;234;26856;-68
2022/07/20 04:19:34;;;;;;;3.10;2.90;;;21.30;50.90;;;;;;613435;234;26629;-68
2022/07/20 04:22:02;;;;;;;3.55;3.25;;;21.40;50.80;;;;;;614425;234;26629;-68
2022/07/20 04:24:30;;;;;;;3.58;3.28;;;21.40;50.70;;;;;;610219;234;26688;-68
2022/07/20 04:26:57;;;;;;;3.58;3.28;;;21.40;50.70;;;;;;605443;234;26599;-68
2022/07/20 04:29:24;;;;;;;3.55;3.33;;;21.50;50.60;;;;;;606019;234;26673;-68
2022/07/20 04:31:53;;;;;;;3.58;3.28;;;21.50;50.40;;;;;;609918;234;26615;-68
2022/07/20 04:34:20;;;;;;;3.47;3.17;;;21.50;50.40;;;;;;601728;238;26630;-68
2022/07/20 04:36:47;;;;;;;3.67;3.37;;;21.60;50.40;;;;;;605919;234;26558;-68
2022/07/20 04:39:15;;;;;;;3.30;3.00;;;21.60;50.40;;;;;;613875;234;26816;-68
2022/07/20 04:41:42;;;;;;;3.22;3.03;;;21.60;50.40;;;;;;609440;234;26855;-68
2022/07/20 04:44:09;;;;;;;4.05;3.75;;;21.70;50.40;;;;;;613338;234;27280;-68
2022/07/20 04:46:36;;;;;;;3.58;3.28;;;21.70;50.40;;;;;;604603;234;26622;-68
2022/07/20 04:49:03;;;;;;;4.60;3.67;;;21.80;50.40;;;;;;603585;234;26891;-68
2022/07/20 04:51:31;;;;;;;3.83;3.53;;;21.80;50.20;;;;;;602291;234;26650;-68
2022/07/20 04:53:58;;;;;;;4.20;3.90;;;21.90;50.10;;;;;;613316;234;26842;-68
2022/07/20 04:56:25;;;;;;;3.97;3.60;;;22.00;50.10;;;;;;603259;235;26645;-68
2022/07/20 04:58:54;;;;;;;4.50;4.10;;;22.10;49.80;;;;;;607046;234;26844;-68
2022/07/20 05:01:20;;;;;;;5.05;3.87;;;22.10;49.80;;;;;;610111;234;26569;-68
2022/07/20 05:03:47;;;;;;;4.20;3.90;;;22.20;50.30;;;;;;609870;235;27211;-68
2022/07/20 05:06:15;;;;;;;4.32;3.72;;;22.20;49.60;;;;;;609892;234;26577;-68
2022/07/20 05:08:42;;;;;;;4.15;3.75;;;22.30;49.50;;;;;;606193;235;26846;-68
2022/07/20 05:11:10;;;;;;;4.50;4.03;;;22.40;49.50;;;;;;612404;234;26636;-68
2022/07/20 05:13:37;;;;;;;4.05;3.65;;;22.50;49.30;;;;;;602820;235;26888;-68
2022/07/20 05:16:04;;;;;;;4.37;3.60;;;22.50;49.00;;;;;;601517;238;26658;-68
2022/07/20 05:18:32;;;;;;;4.40;4.00;;;22.60;49.10;;;;;;603208;234;26669;-68
2022/07/20 05:21:00;;;;;;;4.18;3.78;;;22.70;49.00;;;;;;603279;234;26589;-68
2022/07/20 05:23:27;;;;;;;5.18;3.90;;;22.90;48.80;;;;;;605766;234;26657;-68
2022/07/20 05:25:55;;;;;;;4.70;4.30;;;22.80;48.70;;;;;;603442;234;26686;-68
2022/07/20 05:28:22;;;;;;;4.50;3.72;;;22.90;48.70;;;;;;613836;234;26644;-68
2022/07/20 05:30:49;;;;;;;5.37;4.05;;;23.00;48.60;;;;;;606413;234;26821;-68
2022/07/20 05:33:16;;;;;;;4.87;4.25;;;23.10;48.50;;;;;;609620;234;26665;-68
2022/07/20 05:35:44;;;;;;;4.03;3.72;;;23.20;48.60;;;;;;608681;234;26808;-68
2022/07/20 05:38:11;;;;;;;4.30;3.90;;;23.20;48.30;;;;;;607288;234;26652;-68
2022/07/20 05:40:38;;;;;;;4.30;3.70;;;23.30;48.30;;;;;;609245;234;26852;-68
2022/07/20 05:43:06;;;;;;;4.12;3.83;;;23.40;48.20;;;;;;608807;234;26671;-70
2022/07/20 05:45:34;;;;;;;3.90;3.60;;;23.60;47.90;;;;;;601910;234;26595;-69
2022/07/20 05:48:02;;;;;;;4.20;3.80;;;23.70;47.80;;;;;;604489;234;26582;-69
2022/07/20 05:50:30;;;;;;;4.45;4.05;;;23.80;47.80;;;;;;611507;234;26688;-70
2022/07/20 05:52:57;;;;;;;4.53;4.12;;;23.80;47.80;;;;;;612789;234;26611;-69
2022/07/20 05:55:25;;;;;;;3.87;3.58;;;23.90;47.50;;;;;;605854;234;26658;-70
2022/07/20 05:57:51;;;;;;;3.50;3.22;;;24.00;47.50;;;;;;608155;235;26627;-69
2022/07/20 06:00:19;;;;;;;3.55;3.25;;;24.30;47.20;;;;;;611621;234;26634;-69
2022/07/20 06:02:47;;;;;;;3.22;3.03;;;24.40;47.00;;;;;;603208;234;26724;-70
2022/07/20 06:05:14;;;;;;;2.65;2.47;;;24.40;47.00;;;;;;607719;235;26607;-69
2022/07/20 06:07:42;;;;;;;3.20;3.00;;;24.60;46.90;;;;;;606159;234;26605;-69
2022/07/20 06:10:10;;;;;;;2.83;2.62;;;24.70;46.60;;;;;;605019;234;26692;-70
2022/07/20 06:12:36;;;;;;;3.03;2.83;;;24.90;46.70;;;;;;607336;234;26636;-70
2022/07/20 06:15:04;;;;;;;3.40;3.10;;;24.90;46.40;;;;;;608526;234;26883;-70
2022/07/20 06:17:35;;;;;;;2.55;2.40;;;25.00;46.30;;;;;;606625;234;26664;-72
2022/07/20 06:20:03;;;;;;;3.20;3.00;;;25.20;46.30;;;;;;608952;234;26619;-71
2022/07/20 06:22:29;;;;;;;2.90;2.70;;;25.30;46.20;;;;;;608361;234;26973;-70
2022/07/20 06:24:56;;;;;;;3.25;3.05;;;25.40;46.10;;;;;;609031;234;26648;-71
2022/07/20 06:27:24;;;;;;;3.22;2.90;;;25.60;46.00;;;;;;609041;234;26645;-69
2022/07/20 06:29:52;;;;;;;2.87;2.67;;;25.80;46.00;;;;;;607941;233;26620;-69
2022/07/20 06:32:20;;;;;;;3.08;2.87;;;25.90;45.70;;;;;;609819;234;26683;-63
2022/07/20 06:34:47;;;;;;;3.72;3.12;;;25.80;45.60;;;;;;607362;234;26644;-63
2022/07/20 06:37:14;;;;;;;2.90;2.70;;;26.00;45.50;;;;;;607907;234;26641;-64
2022/07/20 06:39:42;;;;;;;3.50;3.20;;;26.10;45.60;;;;;;609202;234;26622;-65
2022/07/20 06:42:10;;;;;;;3.53;3.22;;;26.10;45.60;;;;;;607904;233;26620;-64
2022/07/20 06:44:37;;;;;;;4.40;3.42;;;26.10;45.20;;;;;;608239;234;26605;-66
2022/07/20 06:47:04;;;;;;;3.62;3.40;;;26.20;45.40;;;;;;608599;234;26606;-69
2022/07/20 06:49:33;;;;;;;3.50;3.20;;;26.30;45.50;;;;;;607659;234;26647;-70
2022/07/20 06:52:00;;;;;;;3.53;3.25;;;26.20;45.40;;;;;;606882;234;26871;-69
2022/07/20 06:54:27;;;;;;;3.45;3.15;;;26.30;45.40;;;;;;608610;234;26649;-71
2022/07/20 06:56:56;;;;;;;4.07;3.67;;;26.30;45.20;;;;;;607176;234;26607;-69
2022/07/20 06:59:23;;;;;;;3.92;3.60;;;26.30;45.40;;;;;;607921;234;26592;-69
2022/07/20 07:01:50;;;;;;;3.67;3.37;;;26.40;45.40;;;;;;607579;234;26885;-67
2022/07/20 07:04:17;;;;;;;3.90;3.60;;;26.50;45.20;;;;;;607186;234;26675;-68
2022/07/20 07:06:45;;;;;;;3.60;3.30;;;26.60;45.20;;;;;;608068;234;26886;-68
2022/07/20 07:09:12;;;;;;;3.78;3.42;;;26.80;45.00;;;;;;607809;234;26638;-69
2022/07/20 07:11:39;;;;;;;4.03;3.62;;;26.90;44.90;;;;;;606049;234;26873;-70
2022/07/20 07:14:06;;;;;;;4.97;4.10;;;27.10;44.70;;;;;;607922;234;26614;-70
2022/07/20 07:16:33;;;;;;;4.82;3.90;;;27.20;44.50;;;;;;607798;234;26862;-69
2022/07/20 07:19:01;;;;;;;3.87;3.58;;;27.30;44.40;;;;;;607288;234;26589;-69
2022/07/20 07:21:28;;;;;;;4.82;4.20;;;27.50;44.10;;;;;;608697;234;26615;-68
2022/07/20 07:23:56;;;;;;;4.03;3.58;;;27.70;43.80;;;;;;607451;234;26633;-69
2022/07/20 07:26:24;;;;;;;3.75;3.40;;;27.90;43.60;;;;;;606262;234;26636;-69
2022/07/20 07:28:53;;;;;;;4.18;3.83;;;28.00;43.80;;;;;;612946;234;26625;-68
2022/07/20 07:31:20;;;;;;;4.03;3.62;;;28.10;43.10;;;;;;613200;230;26575;-68
2022/07/20 07:33:49;;;;;;;3.80;3.50;;;28.20;43.00;;;;;;607710;234;26581;-69
2022/07/20 07:36:16;;;;;;;3.70;3.40;;;28.20;43.00;;;;;;608009;234;26807;-70
2022/07/20 07:38:44;;;;;;;4.78;3.67;;;28.40;43.50;;;;;;607982;234;26611;-68
2022/07/20 07:41:12;;;;;;;3.55;3.25;;;28.40;43.20;;;;;;612265;232;27033;-68
2022/07/20 07:43:39;;;;;;;4.25;3.85;;;28.50;43.10;;;;;;608917;234;26631;-68
2022/07/20 07:46:07;;;;;;;3.45;3.15;;;28.60;42.70;;;;;;605227;234;26638;-68
2022/07/20 07:48:34;;;;;;;3.62;3.40;;;28.50;42.50;;;;;;605551;234;26882;-68
2022/07/20 07:51:01;;;;;;;3.37;3.08;;;28.60;42.50;;;;;;609466;234;26584;-68
2022/07/20 07:53:29;;;;;;;3.40;3.20;;;28.70;43.10;;;;;;610207;234;26886;-68
2022/07/20 07:55:56;;;;;;;3.20;3.00;;;28.60;43.10;;;;;;609080;234;26611;-68
2022/07/20 07:58:23;;;;;;;3.08;2.80;;;28.70;42.90;;;;;;609885;234;26842;-68
2022/07/20 08:00:50;;;;;;;3.12;2.92;;;28.80;42.80;;;;;;607795;234;26619;-70
2022/07/20 08:03:17;;;;;;;3.28;3.00;;;29.20;42.30;;;;;;605676;234;26856;-68
2022/07/20 08:05:45;;;;;;;3.42;3.12;;;29.20;42.20;;;;;;609479;234;26643;-68
2022/07/20 08:08:12;;;;;;;3.25;2.95;;;29.20;42.40;;;;;;607327;234;26715;-68
2022/07/20 08:10:40;;;;;;;3.30;2.90;;;29.30;42.70;;;;;;611025;234;26564;-68
2022/07/20 08:13:08;;;;;;;2.78;2.58;;;29.30;42.40;;;;;;609860;234;26579;-68
2022/07/20 08:15:36;;;;;;;2.70;2.50;;;29.40;42.30;;;;;;608147;234;26643;-68
2022/07/20 08:18:04;;;;;;;2.90;2.70;;;29.40;42.10;;;;;;610245;234;26546;-68
2022/07/20 08:20:31;;;;;;;3.08;2.80;;;29.40;42.10;;;;;;608112;234;26643;-68
2022/07/20 08:22:58;;;;;;;3.33;3.12;;;29.50;41.90;;;;;;607367;234;26572;-68
2022/07/20 08:25:25;;;;;;;2.83;2.62;;;29.60;41.60;;;;;;608260;234;26858;-68
2022/07/20 08:27:53;;;;;;;2.92;2.70;;;29.60;41.60;;;;;;606006;234;26557;-68
2022/07/20 08:30:20;;;;;;;2.20;2.10;;;29.70;41.80;;;;;;605389;234;26961;-68
2022/07/20 08:32:47;;;;;;;2.62;2.42;;;29.70;41.70;;;;;;608242;234;26690;-68
2022/07/20 08:35:14;;;;;;;3.12;2.05;;;29.80;41.50;;;;;;610153;234;26630;-68
2022/07/20 08:37:41;;;;;;;2.80;2.35;;;29.90;41.40;;;;;;608127;234;26641;-69
2022/07/20 08:40:09;;;;;;;3.58;2.60;;;29.90;41.20;;;;;;607067;234;26883;-68
2022/07/20 08:42:36;;;;;;;3.10;2.55;;;30.00;41.30;;;;;;607077;234;26693;-70
2022/07/20 08:45:04;;;;;;;4.07;2.85;;;30.00;41.00;;;;;;610826;234;27119;-68
2022/07/20 08:47:31;;;;;;;1.80;1.70;;;30.10;41.00;;;;;;608029;234;26666;-68
2022/07/20 08:49:58;;;;;;;1.80;1.70;;;30.20;41.00;;;;;;605093;234;26862;-69
2022/07/20 08:52:25;;;;;;;2.22;2.03;;;30.20;40.80;;;;;;607406;233;26665;-68
2022/07/20 08:54:52;;;;;;;3.08;2.33;;;30.30;40.50;;;;;;605819;233;26877;-69
2022/07/20 08:57:20;;;;;;;13.90;5.87;;;30.30;40.30;;;;;;609248;234;26702;-69
2022/07/20 08:59:47;;;;;;;2.58;2.10;;;30.40;39.90;;;;;;603852;234;26825;-69
2022/07/20 09:02:15;;;;;;;7.10;5.07;;;30.50;40.10;;;;;;604827;234;26626;-69
2022/07/20 09:04:49;;;;;;;6.25;2.67;;;30.60;39.80;;;;;;602869;236;26606;-69
2022/07/20 09:07:16;;;;;;;2.20;2.00;;;30.50;39.70;;;;;;614072;234;26994;-69
2022/07/20 09:09:44;;;;;;;2.05;1.95;;;30.60;39.80;;;;;;608341;234;26681;-68
2022/07/20 09:12:11;;;;;;;2.42;1.92;;;30.60;39.50;;;;;;608362;231;26907;-70
2022/07/20 09:14:41;;;;;;;4.62;2.10;;;30.70;39.50;;;;;;614132;234;26595;-71
2022/07/20 09:17:15;;;;;;;76.70;18.05;;;30.80;39.20;;;;;;612492;234;26623;-72
2022/07/20 09:19:52;;;;;;;100.10;23.17;;;30.80;39.10;;;;;;609929;234;26856;-71
2022/07/20 09:22:27;;;;;;;29.67;9.23;;;30.90;38.80;;;;;;601698;239;26627;-71
2022/07/20 09:24:55;;;;;;;83.37;21.62;;;31.00;38.40;;;;;;612138;234;26912;-72
2022/07/20 09:27:23;;;;;;;32.97;8.80;;;31.00;38.40;;;;;;609439;234;27318;-74
2022/07/20 09:30:09;;;;;;;52.08;14.07;;;31.10;38.10;;;;;;601207;238;26652;-72
2022/07/20 09:32:35;;;;;;;9.13;3.47;;;31.10;37.70;;;;;;601476;239;26672;-72
2022/07/20 09:35:02;;;;;;;4.22;2.30;;;31.10;37.70;;;;;;599687;239;26619;-72
2022/07/20 09:37:31;;;;;;;4.15;1.98;;;31.20;37.80;;;;;;602079;235;26874;-72
2022/07/20 09:39:59;;;;;;;5.18;2.28;;;31.30;37.30;;;;;;609833;231;26596;-72
2022/07/20 09:42:36;;;;;;;5.22;2.72;;;31.30;37.50;;;;;;610964;235;26880;-72
2022/07/20 09:45:16;;;;;;;5.45;3.00;;;31.50;37.20;;;;;;610987;235;26584;-71
2022/07/20 09:47:43;;;;;;;2.90;1.98;;;31.50;37.20;;;;;;610818;235;26848;-72
2022/07/20 09:50:29;;;;;;;25.05;7.37;;;31.60;37.20;;;;;;608451;235;26591;-72
2022/07/20 09:52:55;;;;;;;2.00;1.85;;;31.60;37.20;;;;;;609722;234;26648;-71
2022/07/20 09:55:22;;;;;;;3.08;2.25;;;31.70;36.10;;;;;;613715;234;26817;-71
2022/07/20 09:57:51;;;;;;;2.37;2.17;;;31.80;35.60;;;;;;613897;234;26576;-71
2022/07/20 10:00:18;;;;;;;7.20;3.20;;;31.90;36.00;;;;;;613827;234;26822;-72
2022/07/20 10:02:46;;;;;;;2.15;1.98;;;32.00;35.80;;;;;;613940;234;26861;-71
2022/07/20 10:05:14;;;;;;;2.20;2.00;;;32.00;36.00;;;;;;615175;232;26856;-71
2022/07/20 10:07:41;;;;;;;3.17;2.22;;;32.10;35.50;;;;;;614285;234;26664;-71
2022/07/20 10:10:10;;;;;;;2.03;1.87;;;32.10;35.30;;;;;;614916;234;26591;-71
2022/07/20 10:12:37;;;;;;;11.57;5.60;;;32.10;35.30;;;;;;614780;234;26587;-71
2022/07/20 10:15:06;;;;;;;1.70;1.60;;;32.20;35.40;;;;;;614527;234;26895;-71
2022/07/20 10:17:36;;;;;;;3.33;2.10;;;32.30;34.50;;;;;;614161;234;26631;-72
2022/07/20 10:20:03;;;;;;;3.78;2.47;;;32.30;34.50;;;;;;614429;234;26634;-72
2022/07/20 10:22:31;;;;;;;1.83;1.73;;;32.30;34.60;;;;;;614396;234;26881;-71
2022/07/20 10:25:16;;;;;;;4.78;2.58;;;32.30;34.30;;;;;;614095;234;26571;-71
2022/07/20 10:27:42;;;;;;;4.87;3.70;;;32.40;34.60;;;;;;613111;234;26820;-70
2022/07/20 10:30:16;;;;;;;5.35;4.05;;;32.50;33.90;;;;;;614158;234;26593;-71
2022/07/20 10:32:52;;;;;;;3.25;2.92;;;32.50;33.90;;;;;;614259;234;26611;-72
2022/07/20 10:35:25;;;;;;;1.50;1.35;;;32.50;33.80;;;;;;613813;234;26610;-70
2022/07/20 10:37:52;;;;;;;1.77;1.67;;;32.60;33.60;;;;;;612580;235;26591;-70
2022/07/20 10:40:28;;;;;;;2.20;2.10;;;32.70;33.20;;;;;;612641;234;26847;-70
2022/07/20 10:43:11;;;;;;;6.20;3.50;;;32.80;32.90;;;;;;612295;235;26886;-70
2022/07/20 10:45:38;;;;;;;2.28;1.80;;;32.80;33.00;;;;;;611966;234;26857;-70
2022/07/20 10:48:17;;;;;;;4.37;3.35;;;33.10;32.50;;;;;;613798;234;26553;-71
2022/07/20 10:50:49;;;;;;;5.53;3.78;;;33.00;32.40;;;;;;613899;234;26877;-70
2022/07/20 10:53:30;;;;;;;1.60;1.50;;;33.10;32.90;;;;;;613731;234;26676;-71
2022/07/20 10:55:58;;;;;;;1.17;1.17;;;33.20;32.80;;;;;;613849;234;26603;-71
2022/07/20 10:58:25;;;;;;;5.80;4.07;;;33.30;32.70;;;;;;613664;234;26639;-71
2022/07/20 11:00:52;;;;;;;2.08;1.87;;;33.30;31.90;;;;;;613758;234;26947;-72
2022/07/20 11:03:20;;;;;;;1.45;1.35;;;33.50;31.90;;;;;;611921;234;26672;-72
2022/07/20 11:08:11;;;;;;;6.18;3.15;;;33.80;31.50;;;;;;634547;226;35610;-72
2022/07/20 11:10:38;;;;;;;1.77;1.67;;;33.70;31.70;;;;;;624975;229;26572;-71
2022/07/20 11:13:06;;;;;;;1.50;1.40;;;33.90;31.20;;;;;;615912;230;26622;-71
2022/07/20 11:15:37;;;;;;;1.40;1.37;;;34.00;31.30;;;;;;613287;233;26594;-72
2022/07/20 11:18:04;;;;;;;1.83;1.73;;;33.90;30.90;;;;;;612961;235;26833;-72
2022/07/20 11:20:31;;;;;;;1.80;1.70;;;34.00;31.00;;;;;;612963;233;26872;-72
2022/07/20 11:22:59;;;;;;;1.62;1.52;;;34.10;30.90;;;;;;613034;234;26665;-72
2022/07/20 11:25:28;;;;;;;1.73;1.62;;;34.10;30.90;;;;;;612707;234;26640;-72
2022/07/20 11:28:00;;;;;;;1.60;1.50;;;34.30;30.70;;;;;;611498;235;26602;-72
2022/07/20 11:30:36;;;;;;;2.45;2.28;;;34.40;30.40;;;;;;612776;235;26889;-71
2022/07/20 11:33:03;;;;;;;1.55;1.45;;;34.40;30.00;;;;;;611457;235;26973;-72
2022/07/20 11:35:30;;;;;;;3.70;2.67;;;34.40;30.50;;;;;;610103;236;26594;-72
2022/07/20 11:37:58;;;;;;;2.10;1.67;;;34.40;30.40;;;;;;610184;235;26866;-73
2022/07/20 11:40:25;;;;;;;1.30;1.30;;;34.40;29.80;;;;;;610230;235;26599;-72
2022/07/20 11:43:05;;;;;;;1.45;1.40;;;34.50;30.30;;;;;;601490;235;26835;-72
2022/07/20 11:45:32;;;;;;;2.03;1.85;;;34.60;30.50;;;;;;601559;233;26634;-72
2022/07/20 11:48:00;;;;;;;2.30;1.40;;;34.60;30.10;;;;;;601593;237;26637;-72
2022/07/20 11:50:32;;;;;;;1.30;1.20;;;34.80;29.70;;;;;;601425;238;26633;-72
2022/07/20 11:52:59;;;;;;;1.50;1.40;;;34.70;29.70;;;;;;601950;239;26645;-72
2022/07/20 11:55:32;;;;;;;1.20;1.20;;;34.80;29.90;;;;;;601956;239;26599;-72
2022/07/20 11:57:59;;;;;;;1.30;1.30;;;34.90;30.00;;;;;;601978;233;26596;-71
2022/07/20 12:00:27;;;;;;;1.70;1.60;;;34.90;30.00;;;;;;602002;232;26593;-72
2022/07/20 12:02:57;;;;;;;1.65;1.40;;;35.00;29.70;;;;;;601938;237;26587;-72
2022/07/20 12:05:25;;;;;;;2.10;1.55;;;35.10;29.80;;;;;;601974;239;26590;-71
2022/07/20 12:10:25;;;;;;;1.17;1.17;;;35.20;29.10;;;;;;601985;237;26603;-72
2022/07/20 12:13:00;;;;;;;2.00;1.85;;;35.50;29.40;;;;;;601855;239;26653;-72
2022/07/20 12:15:28;;;;;;;2.00;1.80;;;35.50;29.40;;;;;;601661;237;26597;-72
2022/07/20 12:17:56;;;;;;;1.85;1.70;;;35.60;29.60;;;;;;602269;237;26624;-71
2022/07/20 12:20:24;;;;;;;2.45;2.30;;;35.80;29.40;;;;;;602879;237;26640;-70
2022/07/20 12:22:54;;;;;;;1.30;1.30;;;35.80;29.40;;;;;;602441;238;26623;-69
2022/07/20 12:25:21;;;;;;;1.10;1.10;;;35.90;29.40;;;;;;603070;234;26652;-72
2022/07/20 12:27:49;;;;;;;1.80;1.27;;;36.20;29.00;;;;;;603403;237;26679;-73
2022/07/20 12:30:26;;;;;;;1.83;1.58;;;36.40;29.60;;;;;;603591;236;26899;-73
2022/07/20 12:33:01;;;;;;;1.70;1.60;;;36.40;29.50;;;;;;610383;235;26616;-73
2022/07/20 12:35:28;;;;;;;7.07;3.10;;;36.70;29.40;;;;;;608008;236;26820;-73
2022/07/20 12:37:56;;;;;;;2.08;1.83;;;37.00;28.60;;;;;;602993;237;26586;-73
2022/07/20 12:40:30;;;;;;;2.90;2.70;;;37.30;28.60;;;;;;601811;237;26589;-73
2022/07/20 12:42:57;;;;;;;4.55;2.37;;;38.20;27.90;;;;;;605397;234;26624;-72
2022/07/20 12:45:25;;;;;;;1.30;1.30;;;38.20;27.90;;;;;;602981;238;26828;-72
2022/07/20 12:47:53;;;;;;;1.10;1.10;;;38.90;27.70;;;;;;603065;232;26598;-72
2022/07/20 12:50:21;;;;;;;1.25;1.25;;;39.20;27.20;;;;;;604290;238;26550;-71
2022/07/20 12:52:49;;;;;;;2.42;1.90;;;39.50;27.20;;;;;;604463;237;26577;-72
2022/07/20 12:55:17;;;;;;;1.83;1.73;;;39.50;26.90;;;;;;603494;235;26656;-71
2022/07/20 12:57:44;;;;;;;1.92;1.60;;;39.70;27.30;;;;;;605588;235;26641;-71
2022/07/20 13:00:12;;;;;;;1.87;1.67;;;39.90;26.70;;;;;;604566;235;26643;-71